Nearby METAR Reports

 

KSJC - San Jose, California, USA
Distance from station: NE 14km
Updated: 25/10/2020 18:53
Few Clouds
Few Clouds
 Wind from calm
Wind: Calm
Temperature: 17°C
Dew Point: 10°C
Humidity: 64%
Barometer: 1014.2 hPa
Clouds: Few Clouds
Visibility: 16 km
Cloud details: Few Clouds 427 m
Few Clouds 884 m
2020/10/25 16:53 KSJC 251653Z 00000KT 10SM FEW014 FEW029 17/10 A2995 RMK AO2 SLP140 T01670100 $
KNUQ - Moffett Nas/Mtn, California, USA
Distance from station: N 14km
Updated: 25/10/2020 15:55
NOT Current
Overcast
Overcast
 Wind from calm
Wind: Calm
Temperature: 11°C
Dew Point: 10°C
Humidity: 94%
Barometer: 1013.2 hPa
Clouds: Overcast
Visibility: 16 km
Cloud details: Overcast 671 m
2020/10/25 13:55 KNUQ 251355Z AUTO 00000KT 10SM OVC022 11/10 A2992 RMK AO2
 
KPAO - Palo Alto, California, USA
Distance from station: NNW 23km
Updated: 25/10/2020 18:47
Few Clouds
Few Clouds
 Wind from N
Wind: N 6 km/h
Temperature: 16°C
Dew Point: 12°C
Humidity: 77%
Barometer: 1014.2 hPa
Clouds: Few Clouds
Visibility: 16 km
Cloud details: Few Clouds 305 m
2020/10/25 16:47 KPAO 251647Z 36003KT 10SM FEW010 16/12 A2995
KRHV - San Jose/Reid, California, USA
Distance from station: ENE 19km
Updated: 25/10/2020 18:47
Mostly cloudy
Mostly cloudy
 Wind from SSW
Wind: SSW 9 km/h
Temperature: 17°C
Dew Point: 11°C
Humidity: 68%
Barometer: 1014.2 hPa
Clouds: Mostly cloudy
Visibility: 16 km
Cloud details: Partly cloudy 914 m
Mostly cloudy 1829 m
2020/10/25 16:47 KRHV 251647Z 20005KT 10SM SCT030 BKN060 17/11 A2995
 
KOAK - Oakland, California, USA
Distance from station: NNW 50km
Updated: 25/10/2020 18:53
Mostly cloudy
Mostly cloudy
 Wind from NW
Wind: NW 17 km/h
Temperature: 18°C
Dew Point: 12°C
Humidity: 68%
Barometer: 1014.9 hPa
Clouds: Mostly cloudy
Visibility: 16 km
Cloud details: Mostly cloudy 610 m
2020/10/25 16:53 KOAK 251653Z 31009KT 10SM BKN020 18/12 A2997 RMK AO2 SLP147 T01830117 $
KSQL - San Carlos Airpo, California, USA
Distance from station: NW 34km
Updated: 25/10/2020 18:47
Few Clouds
Few Clouds
 Wind from varies
Wind: varies 6 km/h
Temperature: 16°C
Dew Point: 12°C
Humidity: 77%
Barometer: 1014.6 hPa
Clouds: Few Clouds
Visibility: 16 km
Cloud details: Few Clouds 610 m
2020/10/25 16:47 KSQL 251647Z VRB03KT 10SM FEW020 16/12 A2996
 
KSFO - San Francisco, California, USA
Distance from station: NW 49km
Updated: 25/10/2020 18:56
Partly cloudy
Partly cloudy
 Wind from WSW
Wind: WSW 13 km/h
Temperature: 16°C
Dew Point: 10°C
Humidity: 68%
Barometer: 1014.2 hPa
Clouds: Partly cloudy
Visibility: 16 km
Cloud details: Few Clouds 488 m
Partly cloudy 610 m
2020/10/25 16:56 KSFO 251656Z 24007KT 10SM FEW016 SCT020 16/10 A2995 RMK AO2 SLP143 T01610100
KE16 - San Martin, California, USA
Distance from station: ESE 43km
Updated: 25/10/2020 18:55
Overcast
Overcast
 Wind from SE
Wind: SE 15 km/h
Temperature: 15°C
Dew Point: 10°C
Humidity: 72%
Barometer: 1014.9 hPa
Clouds: Overcast
Visibility: 16 km
Cloud details: Overcast 914 m
2020/10/25 16:55 KE16 251655Z AUTO 13008KT 10SM OVC030 15/10 A2997 RMK AO2 PWINO PNO
 
KWVI - Watsonville, California, USA
Distance from station: SSE 44km
Updated: 25/10/2020 18:53
Overcast
Overcast
 Wind from varies
Wind: varies 6 km/h
Temperature: 16°C
Dew Point: 11°C
Humidity: 72%
Barometer: 1014.6 hPa
Clouds: Overcast
Visibility: 16 km
Cloud details: Mostly cloudy 640 m
Overcast 792 m
2020/10/25 16:53 KWVI 251653Z AUTO VRB03KT 10SM BKN021 OVC026 16/11 A2996 RMK AO2 SLP144 T01560111 $
KHAF - Half Moon Bay, California, USA
Distance from station: WNW 50km
Updated: 25/10/2020 18:55
Haze, Overcast
Haze, Overcast
 Wind from S
Wind: S 6 km/h
Temperature: 14°C
Dew Point: 11°C
Humidity: 82%
Barometer: 1014.9 hPa
Summary: Haze
Clouds: Overcast
Visibility: 8 km
Cloud details: Overcast 549 m
2020/10/25 16:55 KHAF 251655Z AUTO 19003KT 5SM HZ OVC018 14/11 A2997 RMK AO2
 
KHWD - Hayward, California, USA
Distance from station: N 44km
Updated: 25/10/2020 18:54
Partly cloudy
Partly cloudy
 Wind from NNW
Wind: NNW 7 km/h
Temperature: 18°C
Dew Point: 11°C
Humidity: 64%
Barometer: 1014.2 hPa
Clouds: Partly cloudy
Visibility: 16 km
Cloud details: Partly cloudy 701 m
2020/10/25 16:54 KHWD 251654Z 34004KT 10SM SCT023 18/11 A2995 RMK AO2 SLP152 T01780111
KLVK - Livermore, California, USA
Distance from station: NNE 51km
Updated: 25/10/2020 18:53
Clear
Clear
 
Temperature: 17°C
Dew Point: 11°C
Humidity: 68%
Barometer: 1014.2 hPa
Clouds: Clear
Visibility: 16 km
2020/10/25 16:53 KLVK 251653Z 10SM CLR 17/11 A2995 RMK AO2 SLP138 T01670106 $